KPQI

Northern Maine Regional Airport at Presque Isle

Airport
ICAO code
KPQI
Summary
ICAO Region
NAM
ICAO Territory
Location

Presque Isle, Maine,

Coordinates
46° 41' 30" N , 68° 2' 34" W
KCC
Airport CFIT
Altimeter Temperature Error Correction
Airport WX
Cumulonimbus
Metar
KPQI 151556Z AUTO 35013G18KT 10SM SCT030 16/09 A2995 RMK AO2 SLP167 T01610089

Description

Northern Maine Regional Airport at Presque Isle is a public use airport located 2 km northwest of the central business district of Presque Isle, a city in Aroostook County, Maine.

Climatology

Humid Continental climate (Köppen climate classification Dfb) - Variable weather patterns and a large seasonal temperature variance. Summers are often warm and humid with frequent thunderstorms and winters can be very cold with frequent snowfall and persistent snow cover.

Runways

Designator Length Width Surface Rops
10/28 1827 46 ASP Yes/Yes
1/19 2268 46 ASP Yes/Yes

Airport map

Aerial View

SKYbrary Partners:

Safety knowledge contributed by: